createdAt,value
2022-12-11T00:00:10.294Z,96424.72
2022-12-11T00:03:15.820Z,96408.53
2022-12-11T00:06:21.102Z,96400.00
2022-12-11T00:09:23.243Z,96402.69
2022-12-11T00:12:25.383Z,96398.41
2022-12-11T00:15:28.177Z,96405.44
2022-12-11T00:18:30.332Z,96393.41
2022-12-11T00:21:32.841Z,96390.91
2022-12-11T00:24:34.902Z,96396.09
2022-12-11T00:27:36.981Z,96389.13
2022-12-11T00:30:41.259Z,96396.19
2022-12-11T00:33:46.332Z,96386.66
2022-12-11T00:36:48.348Z,96402.28
2022-12-11T00:39:50.335Z,96392.00
2022-12-11T00:42:52.291Z,96393.75
2022-12-11T00:45:54.343Z,96398.94
2022-12-11T00:48:56.485Z,96399.78
2022-12-11T00:51:58.542Z,96403.22
2022-12-11T00:55:00.542Z,96402.38
2022-12-11T00:58:02.496Z,96411.91
2022-12-11T01:01:13.938Z,96421.44
2022-12-11T01:04:15.918Z,96422.34
2022-12-11T01:07:19.072Z,96424.13
2022-12-11T01:10:24.253Z,96416.50
2022-12-11T01:13:26.340Z,96421.81
2022-12-11T01:16:28.375Z,96425.47
2022-12-11T01:19:31.649Z,96416.13
2022-12-11T01:22:33.668Z,96421.66
2022-12-11T01:25:38.362Z,96427.00
2022-12-11T01:28:41.581Z,96429.59
2022-12-11T01:31:43.568Z,96432.38
2022-12-11T01:34:45.548Z,96425.53
2022-12-11T01:37:47.855Z,96420.50
2022-12-11T01:40:51.450Z,96434.31
2022-12-11T01:43:59.300Z,96438.72
2022-12-11T01:47:01.335Z,96442.25
2022-12-11T01:50:03.568Z,96439.72
2022-12-11T01:53:09.077Z,96427.59
2022-12-11T01:56:11.435Z,96455.34
2022-12-11T01:59:18.054Z,96449.25
2022-12-11T02:02:24.741Z,96443.25
2022-12-11T02:05:26.838Z,96446.09
2022-12-11T02:08:29.906Z,96444.59
2022-12-11T02:11:42.844Z,96448.00
2022-12-11T02:15:05.668Z,96475.50
2022-12-11T02:18:25.611Z,96454.88
2022-12-11T02:21:44.105Z,96466.91
2022-12-11T02:25:19.212Z,96458.38
2022-12-11T02:28:31.427Z,96442.91
2022-12-11T02:31:49.318Z,96450.81
2022-12-11T02:35:20.775Z,96453.38
2022-12-11T02:38:30.336Z,96451.72
2022-12-11T02:41:34.024Z,96440.44
2022-12-11T02:44:37.257Z,96434.50
2022-12-11T02:47:40.529Z,96426.72
2022-12-11T02:50:54.315Z,96431.91
2022-12-11T02:54:04.395Z,96424.97
2022-12-11T02:57:17.077Z,96428.22
2022-12-11T03:00:19.656Z,96439.31
2022-12-11T03:03:22.280Z,96421.28
2022-12-11T03:06:29.850Z,96423.88
2022-12-11T03:09:32.623Z,96416.38
2022-12-11T03:12:41.136Z,96426.88
2022-12-11T03:16:12.489Z,96413.94
2022-12-11T03:19:45.816Z,96423.22
2022-12-11T03:23:02.929Z,96406.75
2022-12-11T03:26:09.057Z,96402.41
2022-12-11T03:29:31.989Z,96392.69
2022-12-11T03:32:45.106Z,96378.00
2022-12-11T03:35:56.275Z,96394.28
2022-12-11T03:39:02.311Z,96405.72
2022-12-11T03:42:09.050Z,96399.47
2022-12-11T03:45:13.814Z,96406.13
2022-12-11T03:48:18.973Z,96408.63
2022-12-11T03:51:24.469Z,96414.00
2022-12-11T03:54:27.774Z,96420.69
2022-12-11T03:57:33.928Z,96414.75
2022-12-11T04:00:36.404Z,96422.03
2022-12-11T04:03:39.251Z,96425.47
2022-12-11T04:06:41.269Z,96422.88
2022-12-11T04:09:43.286Z,96426.47
2022-12-11T04:12:45.282Z,96423.16
2022-12-11T04:15:47.325Z,96422.38
2022-12-11T04:19:08.040Z,96420.13
2022-12-11T04:22:27.083Z,96433.25
2022-12-11T04:25:29.138Z,96429.22
2022-12-11T04:28:31.176Z,96430.50
2022-12-11T04:31:33.290Z,96436.66
2022-12-11T04:34:35.256Z,96432.59
2022-12-11T04:37:37.965Z,96438.00
2022-12-11T04:40:40.039Z,96436.59
2022-12-11T04:43:45.447Z,96441.94
2022-12-11T04:46:47.492Z,96437.75
2022-12-11T04:49:49.602Z,96431.66
2022-12-11T04:52:55.201Z,96453.28
2022-12-11T04:55:57.621Z,96442.25
2022-12-11T04:58:59.613Z,96456.03
2022-12-11T05:02:01.740Z,96458.88
2022-12-11T05:05:06.155Z,96446.94
2022-12-11T05:08:08.657Z,96430.63
2022-12-11T05:11:13.868Z,96452.19
2022-12-11T05:14:15.986Z,96440.34
2022-12-11T05:17:18.010Z,96449.78
2022-12-11T05:20:19.930Z,96440.25
2022-12-11T05:23:21.921Z,96476.31
2022-12-11T05:26:24.008Z,96466.03
2022-12-11T05:29:25.948Z,96450.44
2022-12-11T05:32:28.649Z,96457.34
2022-12-11T05:35:30.651Z,96465.03
2022-12-11T05:38:32.763Z,96463.28
2022-12-11T05:41:34.691Z,96471.91
2022-12-11T05:44:36.709Z,96487.41
2022-12-11T05:47:38.714Z,96486.25
2022-12-11T05:50:40.675Z,96486.44
2022-12-11T05:53:44.282Z,96494.28
2022-12-11T05:56:46.315Z,96505.53
2022-12-11T05:59:48.284Z,96495.19
2022-12-11T06:02:50.354Z,96500.38
2022-12-11T06:05:52.543Z,96493.50
2022-12-11T06:08:56.801Z,96495.13
2022-12-11T06:11:58.847Z,96501.13
2022-12-11T06:15:00.804Z,96491.53
2022-12-11T06:18:02.892Z,96502.72
2022-12-11T06:21:27.783Z,96506.03
2022-12-11T06:24:29.803Z,96512.81
2022-12-11T06:27:31.792Z,96506.38
2022-12-11T06:30:37.548Z,96520.28
2022-12-11T06:33:41.454Z,96530.44
2022-12-11T06:36:43.445Z,96532.13
2022-12-11T06:39:45.573Z,96527.78
2022-12-11T06:42:47.571Z,96514.75
2022-12-11T06:45:49.611Z,96512.09
2022-12-11T06:48:51.545Z,96523.22
2022-12-11T06:51:53.668Z,96536.31
2022-12-11T06:54:56.001Z,96532.06
2022-12-11T06:57:58.013Z,96531.22
2022-12-11T07:01:00.106Z,96540.88
2022-12-11T07:04:02.243Z,96533.13
2022-12-11T07:07:04.329Z,96552.06
2022-12-11T07:10:08.604Z,96552.84
2022-12-11T07:13:11.003Z,96545.75
2022-12-11T07:16:14.960Z,96553.44
2022-12-11T07:19:17.094Z,96548.28
2022-12-11T07:22:19.136Z,96554.19
2022-12-11T07:25:21.105Z,96557.53
2022-12-11T07:28:23.291Z,96559.34
2022-12-11T07:31:27.140Z,96562.63
2022-12-11T07:34:29.316Z,96560.81
2022-12-11T07:37:31.329Z,96561.56
2022-12-11T07:40:34.067Z,96547.72
2022-12-11T07:43:37.859Z,96556.13
2022-12-11T07:46:40.642Z,96542.19
2022-12-11T07:49:42.684Z,96543.94
2022-12-11T07:52:44.773Z,96563.59
2022-12-11T07:55:46.779Z,96560.75
2022-12-11T07:58:48.873Z,96539.25
2022-12-11T08:01:50.848Z,96543.44
2022-12-11T08:04:52.833Z,96543.38
2022-12-11T08:07:54.838Z,96541.69
2022-12-11T08:10:56.961Z,96542.59
2022-12-11T08:13:59.892Z,96545.81
2022-12-11T08:17:02.690Z,96551.06
2022-12-11T08:20:05.606Z,96556.16
2022-12-11T08:23:07.591Z,96567.19
2022-12-11T08:26:17.055Z,96557.66
2022-12-11T08:29:18.937Z,96562.69
2022-12-11T08:32:20.878Z,96566.94
2022-12-11T08:35:25.834Z,96554.41
2022-12-11T08:38:27.810Z,96537.75
2022-12-11T08:41:30.937Z,96560.84
2022-12-11T08:44:32.977Z,96576.28
2022-12-11T08:47:35.013Z,96580.47
2022-12-11T08:50:37.790Z,96586.44
2022-12-11T08:53:40.225Z,96581.81
2022-12-11T08:56:42.170Z,96582.47
2022-12-11T08:59:44.151Z,96599.78
2022-12-11T09:02:46.274Z,96589.09
2022-12-11T09:05:48.369Z,96588.91
2022-12-11T09:08:53.168Z,96579.06
2022-12-11T09:11:55.765Z,96584.44
2022-12-11T09:14:57.705Z,96585.28
2022-12-11T09:17:59.681Z,96575.19
2022-12-11T09:21:10.230Z,96571.59
2022-12-11T09:24:13.685Z,96578.38
2022-12-11T09:27:15.715Z,96564.97
2022-12-11T09:30:17.789Z,96569.56
2022-12-11T09:33:19.807Z,96573.34
2022-12-11T09:36:22.444Z,96561.34
2022-12-11T09:39:24.541Z,96561.25
2022-12-11T09:42:51.325Z,96556.97
2022-12-11T09:45:55.342Z,96551.63
2022-12-11T09:48:57.810Z,96562.09
2022-12-11T09:51:59.743Z,96553.31
2022-12-11T09:55:10.209Z,96556.47
2022-12-11T09:58:19.129Z,96547.41
2022-12-11T10:01:39.162Z,96549.53
2022-12-11T10:04:43.730Z,96555.03
2022-12-11T10:07:45.691Z,96549.69
2022-12-11T10:11:06.123Z,96529.06
2022-12-11T10:14:17.509Z,96529.66
2022-12-11T10:17:23.597Z,96541.63
2022-12-11T10:20:39.577Z,96521.69
2022-12-11T10:23:51.415Z,96530.72
2022-12-11T10:26:58.517Z,96523.47
2022-12-11T10:30:03.005Z,96529.47
2022-12-11T10:33:07.865Z,96539.59
2022-12-11T10:36:10.971Z,96542.50
2022-12-11T10:39:19.010Z,96534.75
2022-12-11T10:42:22.988Z,96537.41
2022-12-11T10:45:25.169Z,96541.69
2022-12-11T10:48:27.274Z,96541.69
2022-12-11T10:51:32.039Z,96535.66
2022-12-11T10:54:37.034Z,96531.97
2022-12-11T10:57:39.765Z,96522.38
2022-12-11T11:00:42.635Z,96519.41
2022-12-11T11:04:07.502Z,96509.94
2022-12-11T11:07:34.670Z,96512.41
2022-12-11T11:10:36.847Z,96515.34
2022-12-11T11:13:39.024Z,96511.75
2022-12-11T11:16:43.274Z,96512.59
2022-12-11T11:19:48.450Z,96510.66
2022-12-11T11:23:00.267Z,96507.34
2022-12-11T11:26:08.474Z,96513.84
2022-12-11T11:29:29.391Z,96511.25
2022-12-11T11:32:40.048Z,96512.75
2022-12-11T11:35:56.098Z,96509.72
2022-12-11T11:39:20.308Z,96501.13
2022-12-11T11:42:43.933Z,96521.53
2022-12-11T11:45:57.865Z,96500.41
2022-12-11T11:49:20.556Z,96498.88
2022-12-11T11:52:30.947Z,96505.50
2022-12-11T11:55:52.262Z,96507.41
2022-12-11T11:59:06.313Z,96495.72
2022-12-11T12:02:16.322Z,96497.28
2022-12-11T12:05:25.834Z,96506.47
2022-12-11T12:08:33.571Z,96490.06
2022-12-11T12:11:58.591Z,96495.16
2022-12-11T12:15:20.256Z,96515.84
2022-12-11T12:18:50.232Z,96527.13
2022-12-11T12:21:53.227Z,96512.25
2022-12-11T12:25:14.864Z,96521.38
2022-12-11T12:28:28.605Z,96515.78
2022-12-11T12:31:56.691Z,96519.66
2022-12-11T12:35:11.993Z,96517.22
2022-12-11T12:38:50.367Z,96517.28
2022-12-11T12:42:07.528Z,96521.63
2022-12-11T12:45:13.813Z,96514.78
2022-12-11T12:48:16.406Z,96517.13
2022-12-11T12:51:19.163Z,96529.56
2022-12-11T12:54:22.308Z,96522.22
2022-12-11T12:57:24.738Z,96522.38
2022-12-11T13:00:36.573Z,96529.56
2022-12-11T13:04:02.267Z,96528.75
2022-12-11T13:07:20.385Z,96532.91
2022-12-11T13:10:26.570Z,96517.84
2022-12-11T13:13:40.959Z,96530.81
2022-12-11T13:16:48.203Z,96525.88
2022-12-11T13:19:57.714Z,96515.59
2022-12-11T13:23:29.352Z,96524.34
2022-12-11T13:26:33.184Z,96530.16
2022-12-11T13:29:36.958Z,96536.81
2022-12-11T13:32:39.416Z,96520.53
2022-12-11T13:35:41.881Z,96541.16
2022-12-11T13:38:52.092Z,96532.72
2022-12-11T13:42:02.159Z,96545.06
2022-12-11T13:45:05.979Z,96537.47
2022-12-11T13:48:19.973Z,96532.53
2022-12-11T13:51:24.890Z,96542.69
2022-12-11T13:54:29.134Z,96549.88
2022-12-11T13:57:31.174Z,96557.09
2022-12-11T14:00:33.608Z,96568.66
2022-12-11T14:03:36.330Z,96556.72
2022-12-11T14:06:40.155Z,96574.38
2022-12-11T14:09:46.201Z,96571.19
2022-12-11T14:12:54.104Z,96571.34
2022-12-11T14:15:56.262Z,96575.28
2022-12-11T14:19:10.372Z,96573.75
2022-12-11T14:22:24.699Z,96572.00
2022-12-11T14:25:28.452Z,96581.69
2022-12-11T14:28:38.218Z,96579.31
2022-12-11T14:31:44.607Z,96587.22
2022-12-11T14:34:49.250Z,96583.13
2022-12-11T14:37:53.065Z,96593.59
2022-12-11T14:41:03.560Z,96593.59
2022-12-11T14:44:12.823Z,96592.69
2022-12-11T14:47:21.167Z,96608.19
2022-12-11T14:50:28.865Z,96602.91
2022-12-11T14:53:38.106Z,96596.06
2022-12-11T14:56:40.266Z,96608.41
2022-12-11T14:59:47.261Z,96614.53
2022-12-11T15:03:01.564Z,96611.00
2022-12-11T15:06:23.799Z,96600.75
2022-12-11T15:09:37.722Z,96615.50
2022-12-11T15:12:45.401Z,96625.06
2022-12-11T15:15:48.037Z,96625.97
2022-12-11T15:18:52.505Z,96631.13
2022-12-11T15:21:55.587Z,96631.13
2022-12-11T15:25:00.436Z,96647.47
2022-12-11T15:28:02.489Z,96637.22
2022-12-11T15:31:06.058Z,96645.88
2022-12-11T15:34:23.234Z,96659.81
2022-12-11T15:37:36.774Z,96659.88
2022-12-11T15:40:39.711Z,96656.56
2022-12-11T15:43:42.630Z,96653.28
2022-12-11T15:46:45.048Z,96652.44
2022-12-11T15:49:47.574Z,96660.38
2022-12-11T15:52:51.810Z,96657.00
2022-12-11T15:55:54.451Z,96652.81
2022-12-11T15:59:04.825Z,96659.59
2022-12-11T16:02:13.390Z,96658.75
2022-12-11T16:05:15.841Z,96656.22
2022-12-11T16:08:20.437Z,96658.88
2022-12-11T16:11:22.478Z,96664.22
2022-12-11T16:14:24.592Z,96665.31
2022-12-11T16:17:27.074Z,96656.72
2022-12-11T16:20:31.130Z,96654.78
2022-12-11T16:23:33.331Z,96665.97
2022-12-11T16:26:35.700Z,96672.94
2022-12-11T16:29:40.115Z,96660.91
2022-12-11T16:32:43.095Z,96660.91
2022-12-11T16:35:50.358Z,96666.78
2022-12-11T16:38:54.220Z,96665.88
2022-12-11T16:41:57.054Z,96673.63
2022-12-11T16:45:06.763Z,96667.69
2022-12-11T16:48:09.700Z,96669.31
2022-12-11T16:51:11.974Z,96665.88
2022-12-11T16:54:14.105Z,96657.19
2022-12-11T16:57:16.802Z,96663.31
2022-12-11T17:00:19.071Z,96661.56
2022-12-11T17:03:21.117Z,96653.72
2022-12-11T17:06:23.624Z,96660.56
2022-12-11T17:09:26.337Z,96659.09
2022-12-11T17:12:32.334Z,96661.56
2022-12-11T17:15:40.167Z,96662.25
2022-12-11T17:18:43.601Z,96661.56
2022-12-11T17:21:51.649Z,96659.78
2022-12-11T17:24:54.405Z,96658.13
2022-12-11T17:27:57.836Z,96667.69
2022-12-11T17:31:05.498Z,96660.06
2022-12-11T17:34:08.731Z,96663.50
2022-12-11T17:37:11.567Z,96660.91
2022-12-11T17:40:19.302Z,96660.84
2022-12-11T17:43:22.368Z,96664.34
2022-12-11T17:46:25.082Z,96663.56
2022-12-11T17:49:28.241Z,96663.63
2022-12-11T17:52:35.008Z,96674.88
2022-12-11T17:55:44.308Z,96676.72
2022-12-11T17:58:46.911Z,96673.97
2022-12-11T18:01:49.627Z,96680.75
2022-12-11T18:04:52.647Z,96675.59
2022-12-11T18:07:57.878Z,96683.25
2022-12-11T18:11:16.915Z,96682.44
2022-12-11T18:14:19.691Z,96679.19
2022-12-11T18:17:22.121Z,96685.38
2022-12-11T18:20:25.403Z,96686.19
2022-12-11T18:23:28.672Z,96687.09
2022-12-11T18:26:35.231Z,96683.75
2022-12-11T18:29:37.874Z,96688.00
2022-12-11T18:32:46.935Z,96689.75
2022-12-11T18:35:51.963Z,96686.31
2022-12-11T18:38:54.455Z,96692.34
2022-12-11T18:42:30.649Z,96684.59
2022-12-11T18:45:20.381Z,96687.03
2022-12-11T18:48:23.901Z,96689.53
2022-12-11T18:51:27.231Z,96694.00
2022-12-11T18:54:30.160Z,96708.63
2022-12-11T18:57:33.195Z,96704.22
2022-12-11T19:00:39.868Z,96701.53
2022-12-11T19:03:43.164Z,96698.22
2022-12-11T19:06:46.604Z,96696.53
2022-12-11T19:09:49.760Z,96698.22
2022-12-11T19:12:52.810Z,96687.88
2022-12-11T19:15:57.255Z,96688.72
2022-12-11T19:19:01.425Z,96696.47
2022-12-11T19:22:06.200Z,96693.88
2022-12-11T19:25:09.624Z,96690.38
2022-12-11T19:28:13.541Z,96693.72
2022-12-11T19:31:19.656Z,96681.78
2022-12-11T19:34:26.875Z,96687.78
2022-12-11T19:37:29.541Z,96686.25
2022-12-11T19:40:32.664Z,96684.59
2022-12-11T19:43:38.111Z,96676.06
2022-12-11T19:46:41.518Z,96679.53
2022-12-11T19:49:44.921Z,96684.78
2022-12-11T19:52:48.841Z,96683.19
2022-12-11T19:55:54.670Z,96678.72
2022-12-11T19:58:58.014Z,96680.44
2022-12-11T20:02:01.255Z,96683.03
2022-12-11T20:05:04.923Z,96683.03
2022-12-11T20:08:42.294Z,96682.97
2022-12-11T20:11:33.186Z,96683.81
2022-12-11T20:14:37.232Z,96684.66
2022-12-11T20:17:44.512Z,96678.72
2022-12-11T20:20:47.815Z,96681.59
2022-12-11T20:23:52.219Z,96673.75
2022-12-11T20:26:57.711Z,96678.94
2022-12-11T20:30:00.689Z,96679.72
2022-12-11T20:33:07.090Z,96682.28
2022-12-11T20:36:14.277Z,96680.50
2022-12-11T20:39:17.411Z,96681.34
2022-12-11T20:42:20.848Z,96678.78
2022-12-11T20:45:23.703Z,96685.69
2022-12-11T20:48:26.859Z,96679.78
2022-12-11T20:51:33.087Z,96694.50
2022-12-11T20:54:35.487Z,96688.50
2022-12-11T20:57:44.770Z,96685.84
2022-12-11T21:00:48.817Z,96687.66
2022-12-11T21:03:55.083Z,96682.47
2022-12-11T21:06:58.586Z,96676.47
2022-12-11T21:10:00.762Z,96684.22
2022-12-11T21:13:03.191Z,96676.47
2022-12-11T21:16:08.136Z,96685.00
2022-12-11T21:19:16.649Z,96682.47
2022-12-11T21:22:19.651Z,96687.66
2022-12-11T21:25:21.806Z,96688.56
2022-12-11T21:28:24.101Z,96683.38
2022-12-11T21:31:27.479Z,96689.38
2022-12-11T21:34:29.878Z,96690.22
2022-12-11T21:37:32.369Z,96692.88
2022-12-11T21:40:34.825Z,96692.03
2022-12-11T21:43:42.754Z,96688.56
2022-12-11T21:46:59.628Z,96691.19
2022-12-11T21:50:01.715Z,96692.94
2022-12-11T21:53:04.014Z,96683.59
2022-12-11T21:56:07.958Z,96689.69
2022-12-11T21:59:10.391Z,96695.81
2022-12-11T22:02:12.443Z,96683.78
2022-12-11T22:05:14.685Z,96690.69
2022-12-11T22:08:17.170Z,96689.03
2022-12-11T22:11:21.373Z,96694.25
2022-12-11T22:14:23.428Z,96690.91
2022-12-11T22:17:25.400Z,96692.66
2022-12-11T22:20:27.440Z,96691.03
2022-12-11T22:23:29.497Z,96695.31
2022-12-11T22:26:31.495Z,96701.38
2022-12-11T22:29:33.580Z,96687.63
2022-12-11T22:32:35.624Z,96685.94
2022-12-11T22:35:38.157Z,96693.69
2022-12-11T22:38:40.294Z,96688.59
2022-12-11T22:41:42.727Z,96690.38
2022-12-11T22:44:44.686Z,96679.09
2022-12-11T22:47:46.760Z,96692.91
2022-12-11T22:50:48.741Z,96690.31
2022-12-11T22:53:51.326Z,96692.84
2022-12-11T22:56:53.358Z,96695.38
2022-12-11T22:59:57.104Z,96700.47
2022-12-11T23:02:59.193Z,96698.00
2022-12-11T23:06:05.409Z,96695.44
2022-12-11T23:09:07.721Z,96688.81
2022-12-11T23:12:09.773Z,96684.53
2022-12-11T23:15:12.399Z,96688.88
2022-12-11T23:18:14.864Z,96681.31
2022-12-11T23:21:17.141Z,96683.03
2022-12-11T23:24:19.229Z,96676.25
2022-12-11T23:27:21.472Z,96684.22
2022-12-11T23:30:24.149Z,96684.34
2022-12-11T23:33:26.178Z,96680.19
2022-12-11T23:36:29.296Z,96678.50
2022-12-11T23:39:31.304Z,96677.66
2022-12-11T23:42:33.850Z,96676.03
2022-12-11T23:45:35.881Z,96685.53
2022-12-11T23:48:37.987Z,96683.91
2022-12-11T23:51:40.252Z,96694.28
2022-12-11T23:54:42.297Z,96687.53
2022-12-11T23:57:44.270Z,96690.03
